createdAt,value
2022-12-28T00:01:26.476Z,4.26
2022-12-28T00:03:54.090Z,4.82
2022-12-28T00:06:22.781Z,4.76
2022-12-28T00:08:51.643Z,4.90
2022-12-28T00:11:30.830Z,4.85
2022-12-28T00:14:00.290Z,5.03
2022-12-28T00:16:28.756Z,5.05
2022-12-28T00:18:56.440Z,4.77
2022-12-28T00:21:22.964Z,4.68
2022-12-28T00:23:50.496Z,4.72
2022-12-28T00:26:17.498Z,4.77
2022-12-28T00:28:44.032Z,4.29
2022-12-28T00:31:11.724Z,4.62
2022-12-28T00:33:38.332Z,4.78
2022-12-28T00:36:05.375Z,4.67
2022-12-28T00:38:36.754Z,5.00
2022-12-28T00:41:03.693Z,4.65
2022-12-28T00:43:30.823Z,4.66
2022-12-28T00:45:59.038Z,4.72
2022-12-28T00:48:26.729Z,4.64
2022-12-28T00:51:00.167Z,4.64
2022-12-28T00:53:26.563Z,4.69
2022-12-28T00:55:52.941Z,4.48
2022-12-28T00:58:19.316Z,4.36
2022-12-28T01:00:45.782Z,4.39
2022-12-28T01:03:12.192Z,4.52
2022-12-28T01:05:39.412Z,4.77
2022-12-28T01:08:08.068Z,4.99
2022-12-28T01:10:34.442Z,4.94
2022-12-28T01:13:00.837Z,4.94
2022-12-28T01:15:27.256Z,4.70
2022-12-28T01:17:53.726Z,4.47
2022-12-28T01:20:20.123Z,4.76
2022-12-28T01:22:47.923Z,4.79
2022-12-28T01:25:14.492Z,4.67
2022-12-28T01:27:40.895Z,4.68
2022-12-28T01:30:08.490Z,4.15
2022-12-28T01:32:37.551Z,3.93
2022-12-28T01:35:04.701Z,4.09
2022-12-28T01:37:34.494Z,3.99
2022-12-28T01:40:01.538Z,3.96
2022-12-28T01:42:27.992Z,4.47
2022-12-28T01:44:54.527Z,5.26
2022-12-28T01:47:25.440Z,4.97
2022-12-28T01:50:02.125Z,4.78
2022-12-28T01:52:33.325Z,4.36
2022-12-28T01:55:05.976Z,4.17
2022-12-28T01:57:38.871Z,4.29
2022-12-28T02:00:10.542Z,4.16
2022-12-28T02:02:43.189Z,4.23
2022-12-28T02:05:09.973Z,4.06
2022-12-28T02:07:43.297Z,3.75
2022-12-28T02:10:44.187Z,3.89
2022-12-28T02:12:59.320Z,4.10
2022-12-28T02:15:27.308Z,4.21
2022-12-28T02:17:53.822Z,4.03
2022-12-28T02:20:20.639Z,4.15
2022-12-28T02:23:07.961Z,4.17
2022-12-28T02:26:10.560Z,4.09
2022-12-28T02:29:09.514Z,3.96
2022-12-28T02:31:42.713Z,3.82
2022-12-28T02:34:17.101Z,4.11
2022-12-28T02:36:50.469Z,4.17
2022-12-28T02:39:22.477Z,4.10
2022-12-28T02:41:50.128Z,4.08
2022-12-28T02:44:38.033Z,3.93
2022-12-28T02:47:22.992Z,3.99
2022-12-28T02:50:07.738Z,4.03
2022-12-28T02:52:57.475Z,3.75
2022-12-28T02:55:56.214Z,4.02
2022-12-28T02:58:57.825Z,4.09
2022-12-28T03:01:46.390Z,4.08
2022-12-28T03:04:18.717Z,4.25
2022-12-28T03:07:13.470Z,4.00
2022-12-28T03:09:47.448Z,4.09
2022-12-28T03:12:18.931Z,4.38
2022-12-28T03:14:48.643Z,4.29
2022-12-28T03:17:37.107Z,4.55
2022-12-28T03:20:26.581Z,4.67
2022-12-28T03:23:15.112Z,4.60
2022-12-28T03:26:03.056Z,4.27
2022-12-28T03:28:57.681Z,4.26
2022-12-28T03:31:26.855Z,4.08
2022-12-28T03:34:06.081Z,3.68
2022-12-28T03:36:46.267Z,3.76
2022-12-28T03:39:22.715Z,3.88
2022-12-28T03:42:12.713Z,4.06
2022-12-28T03:44:42.582Z,4.16
2022-12-28T03:47:12.023Z,4.63
2022-12-28T03:49:39.974Z,4.36
2022-12-28T03:52:08.473Z,4.28
2022-12-28T03:54:35.284Z,4.51
2022-12-28T03:57:01.783Z,4.34
2022-12-28T03:59:32.561Z,4.11
2022-12-28T04:02:01.049Z,4.09
2022-12-28T04:04:29.551Z,4.41
2022-12-28T04:06:56.588Z,4.52
2022-12-28T04:09:23.052Z,4.55
2022-12-28T04:11:49.511Z,4.34
2022-12-28T04:14:23.387Z,4.45
2022-12-28T04:16:49.851Z,4.47
2022-12-28T04:19:18.131Z,4.51
2022-12-28T04:21:45.303Z,4.60
2022-12-28T04:24:12.395Z,4.58
2022-12-28T04:26:40.049Z,4.45
2022-12-28T04:29:08.264Z,4.03
2022-12-28T04:31:53.411Z,4.04
2022-12-28T04:34:21.130Z,4.62
2022-12-28T04:36:55.382Z,4.39
2022-12-28T04:39:23.248Z,4.43
2022-12-28T04:41:49.754Z,4.49
2022-12-28T04:44:16.126Z,4.43
2022-12-28T04:46:43.204Z,4.18
2022-12-28T04:49:09.631Z,4.16
2022-12-28T04:51:36.030Z,4.04
2022-12-28T04:54:02.491Z,3.88
2022-12-28T04:56:29.554Z,3.95
2022-12-28T04:58:57.129Z,4.21
2022-12-28T05:01:23.727Z,4.20
2022-12-28T05:03:55.730Z,4.50
2022-12-28T05:06:24.890Z,4.42
2022-12-28T05:08:51.546Z,4.36
2022-12-28T05:11:19.853Z,4.44
2022-12-28T05:13:47.570Z,4.26
2022-12-28T05:16:16.535Z,4.37
2022-12-28T05:18:43.989Z,4.32
2022-12-28T05:21:14.576Z,4.23
2022-12-28T05:23:41.145Z,4.43
2022-12-28T05:26:11.292Z,4.64
2022-12-28T05:28:38.266Z,4.59
2022-12-28T05:31:07.066Z,4.63
2022-12-28T05:33:35.037Z,4.42
2022-12-28T05:36:03.643Z,4.32
2022-12-28T05:38:30.115Z,4.22
2022-12-28T05:40:56.467Z,3.78
2022-12-28T05:43:22.888Z,3.95
2022-12-28T05:45:49.233Z,4.15
2022-12-28T05:48:16.365Z,4.00
2022-12-28T05:50:42.818Z,4.08
2022-12-28T05:53:09.263Z,3.81
2022-12-28T05:55:35.692Z,3.99
2022-12-28T05:58:02.046Z,4.31
2022-12-28T06:00:28.452Z,4.33
2022-12-28T06:02:55.002Z,4.59
2022-12-28T06:05:22.130Z,4.62
2022-12-28T06:07:51.415Z,4.71
2022-12-28T06:10:17.936Z,4.73
2022-12-28T06:12:44.355Z,4.60
2022-12-28T06:15:11.156Z,4.33
2022-12-28T06:17:37.605Z,4.36
2022-12-28T06:20:04.866Z,4.55
2022-12-28T06:22:31.904Z,4.55
2022-12-28T06:24:58.375Z,4.66
2022-12-28T06:27:24.869Z,4.52
2022-12-28T06:29:51.318Z,4.66
2022-12-28T06:32:17.713Z,4.75
2022-12-28T06:34:44.094Z,4.75
2022-12-28T06:37:10.480Z,4.56
2022-12-28T06:39:37.517Z,4.60
2022-12-28T06:42:04.030Z,4.67
2022-12-28T06:44:30.498Z,4.77
2022-12-28T06:46:56.863Z,4.75
2022-12-28T06:49:23.246Z,4.62
2022-12-28T06:51:49.605Z,4.49
2022-12-28T06:54:16.098Z,4.76
2022-12-28T06:56:43.185Z,4.78
2022-12-28T06:59:09.629Z,5.03
2022-12-28T07:01:38.532Z,4.94
2022-12-28T07:04:07.097Z,5.25
2022-12-28T07:06:36.211Z,5.30
2022-12-28T07:09:04.370Z,5.29
2022-12-28T07:11:30.848Z,5.26
2022-12-28T07:13:57.969Z,5.13
2022-12-28T07:16:27.685Z,5.02
2022-12-28T07:18:54.952Z,4.99
2022-12-28T07:21:23.423Z,4.96
2022-12-28T07:23:51.144Z,4.81
2022-12-28T07:26:20.046Z,4.95
2022-12-28T07:28:47.959Z,4.71
2022-12-28T07:31:17.910Z,4.68
2022-12-28T07:33:45.581Z,4.61
2022-12-28T07:36:15.424Z,4.60
2022-12-28T07:38:42.148Z,4.62
2022-12-28T07:41:11.538Z,4.69
2022-12-28T07:43:38.364Z,4.93
2022-12-28T07:46:07.510Z,4.96
2022-12-28T07:48:35.617Z,4.67
2022-12-28T07:51:07.520Z,4.89
2022-12-28T07:53:35.947Z,5.18
2022-12-28T07:56:03.013Z,5.21
2022-12-28T07:58:29.494Z,4.84
2022-12-28T08:01:03.624Z,4.95
2022-12-28T08:03:30.058Z,5.06
2022-12-28T08:06:02.479Z,4.91
2022-12-28T08:08:28.872Z,4.57
2022-12-28T08:10:55.355Z,4.63
2022-12-28T08:13:21.835Z,4.59
2022-12-28T08:15:53.958Z,4.48
2022-12-28T08:18:20.413Z,4.92
2022-12-28T08:20:46.799Z,5.11
2022-12-28T08:23:13.854Z,5.09
2022-12-28T08:25:40.239Z,5.26
2022-12-28T08:28:06.646Z,5.62
2022-12-28T08:30:33.061Z,5.85
2022-12-28T08:32:59.452Z,5.90
2022-12-28T08:35:26.154Z,5.63
2022-12-28T08:37:54.663Z,5.83
2022-12-28T08:40:26.822Z,5.99
2022-12-28T08:42:56.509Z,5.83
2022-12-28T08:45:22.942Z,5.56
2022-12-28T08:47:49.375Z,6.04
2022-12-28T08:50:19.905Z,6.17
2022-12-28T08:52:46.868Z,5.65
2022-12-28T08:55:13.314Z,5.60
2022-12-28T08:57:40.368Z,5.76
2022-12-28T09:00:08.320Z,5.76
2022-12-28T09:02:35.050Z,5.90
2022-12-28T09:05:01.623Z,6.17
2022-12-28T09:07:28.108Z,6.53
2022-12-28T09:09:54.634Z,6.66
2022-12-28T09:12:21.018Z,6.40
2022-12-28T09:14:48.046Z,6.66
2022-12-28T09:17:14.408Z,6.67
2022-12-28T09:19:40.776Z,6.63
2022-12-28T09:22:07.305Z,6.41
2022-12-28T09:24:34.024Z,7.00
2022-12-28T09:27:00.571Z,6.97
2022-12-28T09:29:27.149Z,6.91
2022-12-28T09:31:54.255Z,6.69
2022-12-28T09:34:35.706Z,6.60
2022-12-28T09:37:03.188Z,6.40
2022-12-28T09:39:29.928Z,6.74
2022-12-28T09:42:00.365Z,7.50
2022-12-28T09:44:56.676Z,7.04
2022-12-28T09:47:30.144Z,7.01
2022-12-28T09:50:06.641Z,6.77
2022-12-28T09:52:36.001Z,6.66
2022-12-28T09:55:10.625Z,6.74
2022-12-28T09:57:40.876Z,7.17
2022-12-28T10:00:14.440Z,7.13
2022-12-28T10:02:47.622Z,7.38
2022-12-28T10:05:14.355Z,7.33
2022-12-28T10:07:40.770Z,7.97
2022-12-28T10:10:07.666Z,8.35
2022-12-28T10:12:34.603Z,8.26
2022-12-28T10:15:01.008Z,8.27
2022-12-28T10:17:29.643Z,7.69
2022-12-28T10:19:58.607Z,7.21
2022-12-28T10:22:31.887Z,7.13
2022-12-28T10:24:58.268Z,7.01
2022-12-28T10:27:29.049Z,6.97
2022-12-28T10:29:55.640Z,6.98
2022-12-28T10:32:22.229Z,6.98
2022-12-28T10:34:59.989Z,6.88
2022-12-28T10:37:29.831Z,6.89
2022-12-28T10:39:59.639Z,6.87
2022-12-28T10:42:29.553Z,6.94
2022-12-28T10:45:01.927Z,6.87
2022-12-28T10:47:34.680Z,6.75
2022-12-28T10:50:35.867Z,6.87
2022-12-28T10:52:57.042Z,6.89
2022-12-28T10:55:28.881Z,6.85
2022-12-28T10:58:28.125Z,6.83
2022-12-28T11:00:53.618Z,6.81
2022-12-28T11:03:24.744Z,6.73
2022-12-28T11:06:09.612Z,6.68
2022-12-28T11:08:36.162Z,6.65
2022-12-28T11:11:02.545Z,6.78
2022-12-28T11:13:29.020Z,6.99
2022-12-28T11:15:55.497Z,7.08
2022-12-28T11:18:22.058Z,7.03
2022-12-28T11:20:50.831Z,7.09
2022-12-28T11:23:20.396Z,7.13
2022-12-28T11:25:47.110Z,7.17
2022-12-28T11:28:16.677Z,7.34
2022-12-28T11:30:43.513Z,7.40
2022-12-28T11:33:25.162Z,7.40
2022-12-28T11:35:57.521Z,7.36
2022-12-28T11:38:40.943Z,7.43
2022-12-28T11:41:10.653Z,7.39
2022-12-28T11:43:55.677Z,7.36
2022-12-28T11:46:39.829Z,7.35
2022-12-28T11:49:26.023Z,7.35
2022-12-28T11:52:26.821Z,7.45
2022-12-28T11:54:55.780Z,7.52
2022-12-28T11:57:35.548Z,7.59
2022-12-28T12:00:38.771Z,7.69
2022-12-28T12:03:05.333Z,7.65
2022-12-28T12:05:48.344Z,7.64
2022-12-28T12:08:39.626Z,7.64
2022-12-28T12:11:32.488Z,7.71
2022-12-28T12:14:01.321Z,7.67
2022-12-28T12:16:35.192Z,7.78
2022-12-28T12:19:06.243Z,7.88
2022-12-28T12:21:36.512Z,8.05
2022-12-28T12:24:17.661Z,8.26
2022-12-28T12:26:50.051Z,8.35
2022-12-28T12:29:22.102Z,8.37
2022-12-28T12:31:54.907Z,8.30
2022-12-28T12:34:26.914Z,8.29
2022-12-28T12:37:28.284Z,8.31
2022-12-28T12:40:19.096Z,8.45
2022-12-28T12:43:04.428Z,8.34
2022-12-28T12:45:43.208Z,8.66
2022-12-28T12:48:24.001Z,8.77
2022-12-28T12:51:04.417Z,8.84
2022-12-28T12:53:55.897Z,8.81
2022-12-28T12:56:35.645Z,9.24
2022-12-28T12:59:18.247Z,9.65
2022-12-28T13:01:53.258Z,9.72
2022-12-28T13:04:23.559Z,9.76
2022-12-28T13:06:55.374Z,9.88
2022-12-28T13:09:25.371Z,9.87
2022-12-28T13:11:52.267Z,9.96
2022-12-28T13:14:21.389Z,10.00
2022-12-28T13:16:53.000Z,10.03
2022-12-28T13:19:22.461Z,10.32
2022-12-28T13:21:50.281Z,10.18
2022-12-28T13:24:21.752Z,10.25
2022-12-28T13:26:49.762Z,10.61
2022-12-28T13:29:20.127Z,10.71
2022-12-28T13:31:49.185Z,10.48
2022-12-28T13:34:18.628Z,10.41
2022-12-28T13:36:49.887Z,10.56
2022-12-28T13:39:18.763Z,10.59
2022-12-28T13:41:48.862Z,10.32
2022-12-28T13:44:32.381Z,10.00
2022-12-28T13:47:03.951Z,9.84
2022-12-28T13:49:36.492Z,9.55
2022-12-28T13:52:07.224Z,9.31
2022-12-28T13:54:33.868Z,9.08
2022-12-28T13:57:36.005Z,8.97
2022-12-28T13:59:49.464Z,8.92
2022-12-28T14:02:19.723Z,8.80
2022-12-28T14:04:53.607Z,8.70
2022-12-28T14:07:24.316Z,8.68
2022-12-28T14:09:51.521Z,8.74
2022-12-28T14:12:18.517Z,8.73
2022-12-28T14:14:48.243Z,8.64
2022-12-28T14:17:17.691Z,8.59
2022-12-28T14:19:45.412Z,8.67
2022-12-28T14:22:25.593Z,8.71
2022-12-28T14:24:59.721Z,8.69
2022-12-28T14:27:26.462Z,8.65
2022-12-28T14:29:54.872Z,8.77
2022-12-28T14:32:21.785Z,8.89
2022-12-28T14:34:55.662Z,8.92
2022-12-28T14:37:27.432Z,8.99
2022-12-28T14:39:59.744Z,9.08
2022-12-28T14:42:27.258Z,9.04
2022-12-28T14:47:44.421Z,8.96
2022-12-28T14:50:17.612Z,8.87
2022-12-28T14:52:46.391Z,8.71
2022-12-28T14:55:24.334Z,8.66
2022-12-28T14:57:55.203Z,8.44
2022-12-28T15:00:25.768Z,8.44
2022-12-28T15:02:53.083Z,8.36
2022-12-28T15:05:41.303Z,8.27
2022-12-28T15:08:08.776Z,8.21
2022-12-28T15:10:39.717Z,8.14
2022-12-28T15:13:06.428Z,8.06
2022-12-28T15:15:34.045Z,7.92
2022-12-28T15:18:00.581Z,7.80
2022-12-28T15:20:27.052Z,7.62
2022-12-28T15:22:53.397Z,7.56
2022-12-28T15:25:19.803Z,7.45
2022-12-28T15:27:49.392Z,7.36
2022-12-28T15:30:20.557Z,7.26
2022-12-28T15:32:51.373Z,7.10
2022-12-28T15:35:18.211Z,6.95
2022-12-28T15:37:44.677Z,6.83
2022-12-28T15:40:11.605Z,6.72
2022-12-28T15:42:40.637Z,6.57
2022-12-28T15:45:08.670Z,6.43
2022-12-28T15:47:35.275Z,6.34
2022-12-28T15:50:02.541Z,6.29
2022-12-28T15:52:30.761Z,6.22
2022-12-28T15:54:57.807Z,6.13
2022-12-28T15:57:24.536Z,6.00
2022-12-28T15:59:51.157Z,5.91
2022-12-28T16:02:18.750Z,5.87
2022-12-28T16:04:46.211Z,5.70
2022-12-28T16:07:13.475Z,5.72
2022-12-28T16:09:40.000Z,5.65
2022-12-28T16:12:06.855Z,5.57
2022-12-28T16:14:33.671Z,5.48
2022-12-28T16:17:00.314Z,5.41
2022-12-28T16:19:26.880Z,5.38
2022-12-28T16:21:53.380Z,5.29
2022-12-28T16:24:20.891Z,5.22
2022-12-28T16:26:49.064Z,5.22
2022-12-28T16:29:15.520Z,5.15
2022-12-28T16:31:42.528Z,5.14
2022-12-28T16:34:12.283Z,5.13
2022-12-28T16:36:42.579Z,5.04
2022-12-28T16:39:13.109Z,5.00
2022-12-28T16:41:40.606Z,4.99
2022-12-28T16:44:12.466Z,4.91
2022-12-28T16:46:39.476Z,4.92
2022-12-28T16:49:06.280Z,4.96
2022-12-28T16:51:34.572Z,4.90
2022-12-28T16:54:01.078Z,4.96
2022-12-28T16:56:27.693Z,4.92
2022-12-28T16:58:58.898Z,4.80
2022-12-28T17:01:25.946Z,4.85
2022-12-28T17:04:03.777Z,4.81
2022-12-28T17:06:31.457Z,4.73
2022-12-28T17:09:00.862Z,4.73
2022-12-28T17:11:27.849Z,4.69
2022-12-28T17:14:03.183Z,4.66
2022-12-28T17:16:30.949Z,4.63
2022-12-28T17:18:58.793Z,4.62
2022-12-28T17:21:25.933Z,4.61
2022-12-28T17:23:52.439Z,4.67
2022-12-28T17:26:19.055Z,4.67
2022-12-28T17:28:45.483Z,4.72
2022-12-28T17:31:15.537Z,4.66
2022-12-28T17:33:45.800Z,4.65
2022-12-28T17:36:12.574Z,4.70
2022-12-28T17:38:39.450Z,4.72
2022-12-28T17:41:13.961Z,4.65
2022-12-28T17:43:44.543Z,4.61
2022-12-28T17:46:11.739Z,4.58
2022-12-28T17:48:38.367Z,4.54
2022-12-28T17:51:10.778Z,4.48
2022-12-28T17:53:38.473Z,4.48
2022-12-28T17:56:07.960Z,4.36
2022-12-28T17:58:34.918Z,4.44
2022-12-28T18:01:02.015Z,4.41
2022-12-28T18:03:34.090Z,4.41
2022-12-28T18:06:01.569Z,4.34
2022-12-28T18:08:28.998Z,4.34
2022-12-28T18:10:56.196Z,4.29
2022-12-28T18:13:23.341Z,4.31
2022-12-28T18:15:49.941Z,4.22
2022-12-28T18:18:17.772Z,4.21
2022-12-28T18:20:54.562Z,4.21
2022-12-28T18:23:21.462Z,4.16
2022-12-28T18:25:47.893Z,4.10
2022-12-28T18:28:15.045Z,4.15
2022-12-28T18:30:41.754Z,4.13
2022-12-28T18:33:08.638Z,4.10
2022-12-28T18:35:35.346Z,4.08
2022-12-28T18:38:02.575Z,4.02
2022-12-28T18:40:29.116Z,3.97
2022-12-28T18:42:56.632Z,3.96
2022-12-28T18:45:23.115Z,3.95
2022-12-28T18:47:49.555Z,3.95
2022-12-28T18:50:15.965Z,3.95
2022-12-28T18:52:44.430Z,3.95
2022-12-28T18:55:11.477Z,3.96
2022-12-28T18:57:37.945Z,3.92
2022-12-28T19:00:05.698Z,3.89
2022-12-28T19:02:32.913Z,3.81
2022-12-28T19:04:59.674Z,3.81
2022-12-28T19:07:26.310Z,3.78
2022-12-28T19:10:13.633Z,3.72
2022-12-28T19:12:42.060Z,3.69
2022-12-28T19:15:09.849Z,3.66
2022-12-28T19:17:36.521Z,3.62
2022-12-28T19:20:03.831Z,3.58
2022-12-28T19:22:30.297Z,3.55
2022-12-28T19:24:56.700Z,3.66
2022-12-28T19:27:23.169Z,3.62
2022-12-28T19:29:50.260Z,3.66
2022-12-28T19:32:16.733Z,3.67
2022-12-28T19:34:43.258Z,3.69
2022-12-28T19:37:09.792Z,3.66
2022-12-28T19:39:36.305Z,3.75
2022-12-28T19:42:03.528Z,3.68
2022-12-28T19:44:29.934Z,3.69
2022-12-28T19:46:58.118Z,3.68
2022-12-28T19:49:24.726Z,3.69
2022-12-28T19:51:51.358Z,3.74
2022-12-28T19:54:17.817Z,3.73
2022-12-28T19:56:44.287Z,3.78
2022-12-28T19:59:10.718Z,3.77
2022-12-28T20:01:38.271Z,3.72
2022-12-28T20:04:12.909Z,3.55
2022-12-28T20:06:41.801Z,3.56
2022-12-28T20:09:08.350Z,3.52
2022-12-28T20:11:35.278Z,3.56
2022-12-28T20:14:03.779Z,3.45
2022-12-28T20:16:32.723Z,3.43
2022-12-28T20:19:00.793Z,3.36
2022-12-28T20:21:27.883Z,3.33
2022-12-28T20:23:54.746Z,3.40
2022-12-28T20:26:22.351Z,3.38
2022-12-28T20:28:49.430Z,3.36
2022-12-28T20:31:16.431Z,3.38
2022-12-28T20:33:43.089Z,3.38
2022-12-28T20:36:12.120Z,3.48
2022-12-28T20:38:39.323Z,3.65
2022-12-28T20:41:08.496Z,3.67
2022-12-28T20:43:35.617Z,3.63
2022-12-28T20:46:02.439Z,3.69
2022-12-28T20:48:31.815Z,3.69
2022-12-28T20:51:00.516Z,3.70
2022-12-28T20:53:27.542Z,3.72
2022-12-28T20:56:04.543Z,3.71
2022-12-28T20:58:30.942Z,3.83
2022-12-28T21:01:03.279Z,3.81
2022-12-28T21:03:29.935Z,3.75
2022-12-28T21:05:56.503Z,3.71
2022-12-28T21:08:28.827Z,3.66
2022-12-28T21:10:58.379Z,3.59
2022-12-28T21:13:25.108Z,3.62
2022-12-28T21:15:51.883Z,3.64
2022-12-28T21:18:18.977Z,3.67
2022-12-28T21:20:45.991Z,3.66
2022-12-28T21:23:12.514Z,3.53
2022-12-28T21:25:39.790Z,3.62
2022-12-28T21:28:07.357Z,3.62
2022-12-28T21:30:33.920Z,3.65
2022-12-28T21:33:00.327Z,3.69
2022-12-28T21:35:32.090Z,3.67
2022-12-28T21:38:01.048Z,3.71
2022-12-28T21:40:27.794Z,3.79
2022-12-28T21:42:54.354Z,3.87
2022-12-28T21:45:21.672Z,3.82
2022-12-28T21:47:48.689Z,3.78
2022-12-28T21:50:15.713Z,3.65
2022-12-28T21:52:44.073Z,3.63
2022-12-28T21:55:31.987Z,3.57
2022-12-28T21:57:59.865Z,3.51
2022-12-28T22:00:45.614Z,3.50
2022-12-28T22:03:30.224Z,3.46
2022-12-28T22:06:04.170Z,3.47
2022-12-28T22:08:49.416Z,3.41
2022-12-28T22:11:34.718Z,3.38
2022-12-28T22:14:01.309Z,3.46
2022-12-28T22:16:31.633Z,3.41
2022-12-28T22:19:02.751Z,3.33
2022-12-28T22:21:29.929Z,3.35
2022-12-28T22:23:56.335Z,3.23
2022-12-28T22:26:22.774Z,3.19
2022-12-28T22:28:49.287Z,3.23
2022-12-28T22:31:15.664Z,3.28
2022-12-28T22:33:42.709Z,3.29
2022-12-28T22:36:13.889Z,3.28
2022-12-28T22:38:40.484Z,3.37
2022-12-28T22:41:07.096Z,3.34
2022-12-28T22:43:33.968Z,3.44
2022-12-28T22:46:02.069Z,3.47
2022-12-28T22:48:28.869Z,3.47
2022-12-28T22:51:00.722Z,3.49
2022-12-28T22:53:27.087Z,3.41
2022-12-28T22:55:57.351Z,3.40
2022-12-28T22:58:23.828Z,3.50
2022-12-28T23:00:50.385Z,3.51
2022-12-28T23:03:16.826Z,3.56
2022-12-28T23:05:49.949Z,3.54
2022-12-28T23:08:17.115Z,3.61
2022-12-28T23:10:53.124Z,4.90
2022-12-28T23:13:19.700Z,7.60
2022-12-28T23:15:54.836Z,8.16
2022-12-28T23:18:39.243Z,6.81
2022-12-28T23:21:24.045Z,6.36
2022-12-28T23:24:09.399Z,5.61
2022-12-28T23:26:54.131Z,5.42
2022-12-28T23:29:24.298Z,5.14
2022-12-28T23:31:53.793Z,5.12
2022-12-28T23:34:20.207Z,5.16
2022-12-28T23:36:46.649Z,5.19
2022-12-28T23:39:13.723Z,5.04
2022-12-28T23:41:48.966Z,5.04
2022-12-28T23:44:15.856Z,5.07
2022-12-28T23:46:42.371Z,4.96
2022-12-28T23:49:09.035Z,5.10
2022-12-28T23:51:35.450Z,5.09
2022-12-28T23:54:01.944Z,5.08
2022-12-28T23:56:29.001Z,5.10
2022-12-28T23:58:55.389Z,4.95
